createdAt,value
2023-05-16T00:02:14.687Z,1.00
2023-05-16T00:04:46.316Z,1.00
2023-05-16T00:07:21.328Z,1.00
2023-05-16T00:09:50.321Z,1.00
2023-05-16T00:12:19.850Z,1.00
2023-05-16T00:14:50.368Z,1.00
2023-05-16T00:17:26.240Z,1.00
2023-05-16T00:19:59.838Z,1.00
2023-05-16T00:22:28.391Z,1.00
2023-05-16T00:25:05.024Z,1.00
2023-05-16T00:27:34.238Z,1.00
2023-05-16T00:30:06.627Z,1.00
2023-05-16T00:32:37.045Z,1.00
2023-05-16T00:35:04.406Z,6.50
2023-05-16T00:37:35.162Z,6.10
2023-05-16T02:35:52.673Z,1.00
2023-05-16T03:09:07.866Z,1.00
2023-05-16T03:21:30.786Z,99.90
2023-05-16T03:24:24.517Z,99.90
2023-05-16T03:32:25.015Z,99.90
2023-05-16T03:35:41.636Z,99.90
2023-05-16T03:38:16.179Z,99.90
2023-05-16T03:40:49.310Z,99.90
2023-05-16T03:46:13.173Z,99.90
2023-05-16T03:48:41.369Z,99.90
2023-05-16T03:51:41.444Z,99.90
2023-05-16T03:54:10.592Z,99.90
2023-05-16T04:03:07.218Z,99.90
2023-05-16T04:05:50.494Z,99.90
2023-05-16T04:08:28.740Z,99.90
2023-05-16T04:17:44.776Z,99.90
2023-05-16T06:21:31.559Z,99.90
2023-05-16T06:24:02.123Z,99.90
2023-05-16T06:26:29.332Z,99.90
2023-05-16T06:29:01.839Z,99.90
2023-05-16T06:37:56.175Z,99.90
2023-05-16T06:44:23.789Z,99.90
2023-05-16T06:46:51.485Z,99.90
2023-05-16T06:49:18.710Z,99.90
2023-05-16T06:51:45.812Z,99.90
2023-05-16T06:54:40.688Z,99.90
2023-05-16T07:08:43.502Z,99.90
2023-05-16T07:11:41.742Z,99.90
2023-05-16T07:14:09.995Z,99.90
2023-05-16T07:16:37.311Z,99.90
2023-05-16T07:19:04.917Z,99.90
2023-05-16T07:22:51.728Z,99.90
2023-05-16T07:25:21.132Z,99.90
2023-05-16T07:27:48.133Z,99.90
2023-05-16T07:30:15.383Z,99.90
2023-05-16T07:32:43.433Z,99.90
2023-05-16T07:35:11.084Z,99.90
2023-05-16T07:37:38.182Z,99.90
2023-05-16T07:40:06.098Z,99.90
2023-05-16T07:42:33.186Z,99.90
2023-05-16T07:45:00.259Z,99.90
2023-05-16T07:47:28.519Z,99.90
2023-05-16T07:49:55.528Z,99.90
2023-05-16T07:52:22.956Z,99.90
2023-05-16T07:54:49.974Z,99.90
2023-05-16T07:57:23.227Z,99.90
2023-05-16T07:59:53.488Z,99.90
2023-05-16T08:02:21.132Z,99.90
2023-05-16T08:04:49.125Z,99.90
2023-05-16T08:07:16.197Z,91.50
2023-05-16T08:09:43.163Z,57.20
2023-05-16T08:12:10.482Z,99.90
2023-05-16T08:14:37.580Z,99.90
2023-05-16T08:17:04.979Z,99.90
2023-05-16T08:19:33.140Z,99.90
2023-05-16T08:22:00.508Z,99.90
2023-05-16T08:24:27.685Z,99.90
2023-05-16T08:26:54.735Z,99.90
2023-05-16T08:29:22.153Z,99.90
2023-05-16T08:31:49.179Z,99.90
2023-05-16T08:34:16.191Z,99.90
2023-05-16T08:36:43.241Z,99.90
2023-05-16T08:39:13.548Z,99.90
2023-05-16T08:41:41.123Z,99.90
2023-05-16T08:44:10.430Z,99.90
2023-05-16T08:46:38.825Z,99.90
2023-05-16T08:49:09.252Z,99.90
2023-05-16T08:51:38.424Z,99.90
2023-05-16T08:54:11.893Z,99.90
2023-05-16T08:56:41.367Z,99.90
2023-05-16T08:59:08.739Z,28.60
2023-05-16T09:01:36.462Z,96.20
2023-05-16T09:04:05.468Z,99.90
2023-05-16T09:06:35.736Z,99.90
2023-05-16T09:09:03.349Z,99.90
2023-05-16T09:11:30.615Z,99.90
2023-05-16T09:13:57.696Z,99.90
2023-05-16T09:16:24.807Z,99.90
2023-05-16T09:19:00.174Z,97.00
2023-05-16T09:21:34.327Z,99.90
2023-05-16T09:24:10.269Z,99.90
2023-05-16T09:26:39.112Z,99.90
2023-05-16T09:29:15.418Z,99.90
2023-05-16T09:31:42.942Z,99.90
2023-05-16T09:34:14.080Z,99.90
2023-05-16T09:36:43.643Z,99.90
2023-05-16T09:39:12.323Z,99.90
2023-05-16T09:41:39.545Z,99.90
2023-05-16T09:44:56.336Z,99.90
2023-05-16T09:50:53.155Z,99.90
2023-05-16T09:53:32.967Z,99.90
2023-05-16T09:56:05.640Z,99.90
2023-05-16T09:58:34.967Z,99.90
2023-05-16T10:01:02.486Z,99.90
2023-05-16T10:03:30.182Z,99.90
2023-05-16T10:11:33.655Z,99.90
2023-05-16T10:14:01.664Z,50.60
2023-05-16T10:16:41.376Z,97.50
2023-05-16T10:19:11.960Z,99.90
2023-05-16T10:22:08.827Z,99.90
2023-05-16T10:25:17.758Z,99.90
2023-05-16T10:27:47.491Z,99.90
2023-05-16T10:30:27.138Z,99.90
2023-05-16T10:42:58.465Z,58.60
2023-05-16T10:49:32.966Z,96.70
2023-05-16T11:17:10.438Z,1.00
2023-05-16T11:24:27.469Z,1.00
2023-05-16T11:27:02.932Z,38.10
2023-05-16T11:32:42.634Z,1.00
2023-05-16T11:35:31.884Z,1.00
2023-05-16T11:37:59.030Z,1.00
2023-05-16T11:40:27.300Z,1.00
2023-05-16T11:42:55.181Z,1.00
2023-05-16T11:45:26.789Z,1.00
2023-05-16T11:48:02.021Z,1.00
2023-05-16T11:50:29.602Z,1.00
2023-05-16T11:52:58.076Z,1.00
2023-05-16T11:55:41.230Z,1.00
2023-05-16T11:58:11.130Z,1.00
2023-05-16T12:00:51.334Z,1.00
2023-05-16T12:03:20.661Z,1.00
2023-05-16T12:05:56.824Z,1.00
2023-05-16T12:08:26.353Z,1.00
2023-05-16T12:11:01.330Z,1.00
2023-05-16T12:13:29.210Z,1.00
2023-05-16T12:15:56.805Z,1.00
2023-05-16T12:18:25.805Z,1.00
2023-05-16T12:24:10.906Z,1.00
2023-05-16T12:26:41.363Z,1.00
2023-05-16T12:29:08.840Z,1.00
2023-05-16T12:31:41.859Z,1.00
2023-05-16T12:34:17.683Z,1.00
2023-05-16T12:36:47.162Z,1.00
2023-05-16T12:39:15.559Z,1.00
2023-05-16T13:09:45.709Z,99.90
2023-05-16T13:12:38.491Z,99.90
2023-05-16T13:15:08.254Z,99.90
2023-05-16T13:18:01.272Z,99.90
2023-05-16T13:20:29.247Z,99.90
2023-05-16T13:22:56.221Z,99.90
2023-05-16T13:25:23.186Z,99.90
2023-05-16T13:27:50.431Z,99.90
2023-05-16T13:30:18.210Z,99.90
2023-05-16T13:32:45.591Z,99.90
2023-05-16T13:35:24.925Z,99.90
2023-05-16T13:37:58.120Z,99.90
2023-05-16T13:40:27.306Z,99.90
2023-05-16T13:42:56.154Z,99.90
2023-05-16T13:45:26.348Z,99.90
2023-05-16T13:47:53.802Z,99.90
2023-05-16T13:50:21.600Z,99.90
2023-05-16T13:52:48.912Z,99.90
2023-05-16T13:55:15.938Z,99.90
2023-05-16T13:57:42.971Z,99.90
2023-05-16T14:02:44.166Z,99.90
2023-05-16T14:05:18.231Z,99.90
2023-05-16T14:07:48.839Z,99.90
2023-05-16T14:10:16.198Z,99.90
2023-05-16T14:12:45.254Z,99.90
2023-05-16T14:15:12.940Z,99.90
2023-05-16T14:18:11.226Z,99.90
2023-05-16T14:27:16.298Z,99.90
2023-05-16T14:30:04.389Z,99.90
2023-05-16T14:36:08.648Z,99.90
2023-05-16T14:38:42.247Z,99.90
2023-05-16T14:41:26.352Z,99.90
2023-05-16T14:43:57.847Z,99.90
2023-05-16T14:49:53.525Z,99.90
2023-05-16T14:59:51.806Z,99.90
2023-05-16T15:02:19.761Z,99.90
2023-05-16T15:07:45.228Z,99.90
2023-05-16T15:10:25.415Z,99.90
2023-05-16T15:13:01.436Z,99.90
2023-05-16T15:15:29.190Z,99.90
2023-05-16T15:17:56.762Z,99.90
2023-05-16T15:20:26.209Z,99.90
2023-05-16T15:22:57.700Z,99.90
2023-05-16T15:25:25.954Z,99.90
2023-05-16T15:28:02.496Z,99.90
2023-05-16T15:30:29.806Z,99.90
2023-05-16T15:32:56.989Z,99.90
2023-05-16T15:35:26.451Z,99.90
2023-05-16T15:38:00.516Z,99.90
2023-05-16T15:40:30.804Z,99.90
2023-05-16T15:43:06.856Z,99.90
2023-05-16T15:45:40.694Z,99.90
2023-05-16T15:50:57.454Z,99.90
2023-05-16T15:53:24.896Z,99.90
2023-05-16T15:56:02.233Z,99.90
2023-05-16T15:58:29.312Z,99.90
2023-05-16T16:00:56.752Z,99.90
2023-05-16T16:03:27.927Z,99.90
2023-05-16T16:06:01.512Z,99.90
2023-05-16T16:08:32.576Z,99.90
2023-05-16T16:11:00.087Z,99.90
2023-05-16T16:13:27.863Z,99.90
2023-05-16T16:15:58.600Z,99.90
2023-05-16T16:18:35.506Z,99.90
2023-05-16T16:21:16.569Z,99.90
2023-05-16T16:23:47.787Z,99.90
2023-05-16T16:26:23.094Z,99.90
2023-05-16T16:28:56.347Z,99.90
2023-05-16T16:31:25.949Z,99.90
2023-05-16T16:33:54.830Z,99.90
2023-05-16T16:36:36.687Z,99.90
2023-05-16T16:39:06.957Z,99.90
2023-05-16T16:41:34.161Z,99.90
2023-05-16T16:44:03.924Z,99.90
2023-05-16T16:46:34.373Z,99.90
2023-05-16T16:49:12.970Z,99.90
2023-05-16T16:51:49.146Z,99.90
2023-05-16T16:54:16.705Z,99.90
2023-05-16T16:56:46.159Z,1.00
2023-05-16T16:59:15.878Z,1.00
2023-05-16T17:01:43.018Z,1.00
2023-05-16T17:04:12.341Z,1.00
2023-05-16T17:06:44.364Z,1.00
2023-05-16T17:09:14.252Z,1.00
2023-05-16T17:11:43.100Z,1.00
2023-05-16T17:14:12.216Z,1.00
2023-05-16T17:16:42.452Z,1.00
2023-05-16T17:19:13.343Z,1.00
2023-05-16T17:21:44.601Z,1.00
2023-05-16T17:24:11.770Z,1.00
2023-05-16T17:26:42.604Z,1.00
2023-05-16T17:29:10.212Z,1.00
2023-05-16T17:31:37.851Z,1.00
2023-05-16T17:34:08.522Z,1.00
2023-05-16T17:36:38.127Z,1.00
2023-05-16T17:44:52.393Z,1.00
2023-05-16T17:47:21.500Z,1.00
2023-05-16T17:49:50.551Z,1.00
2023-05-16T17:52:17.819Z,1.00
2023-05-16T17:54:52.614Z,1.00
2023-05-16T17:57:22.403Z,1.00
2023-05-16T17:59:49.553Z,1.00
2023-05-16T18:02:18.015Z,1.00
2023-05-16T18:04:49.746Z,1.00
2023-05-16T18:07:20.810Z,1.00
2023-05-16T18:09:53.698Z,1.00
2023-05-16T18:12:21.355Z,1.00
2023-05-16T18:15:18.640Z,1.00
2023-05-16T18:18:17.014Z,1.00
2023-05-16T18:20:52.975Z,1.00
2023-05-16T18:23:22.377Z,1.00
2023-05-16T18:25:52.676Z,1.00
2023-05-16T18:28:23.918Z,1.00
2023-05-16T18:30:57.472Z,1.00
2023-05-16T18:33:29.209Z,1.00
2023-05-16T18:36:02.287Z,1.00
2023-05-16T18:38:33.597Z,1.00
2023-05-16T18:41:11.652Z,1.00
2023-05-16T18:43:50.365Z,1.00
2023-05-16T18:46:59.758Z,1.00
2023-05-16T18:49:27.589Z,1.00
2023-05-16T18:52:09.569Z,1.00
2023-05-16T18:54:42.295Z,1.00
2023-05-16T18:57:24.155Z,1.00
2023-05-16T18:59:58.389Z,1.00
2023-05-16T19:02:42.473Z,1.00
2023-05-16T19:09:25.791Z,1.00
2023-05-16T19:12:04.305Z,1.00
2023-05-16T19:14:31.674Z,1.00
2023-05-16T19:16:58.669Z,1.00
2023-05-16T19:19:26.347Z,1.00
2023-05-16T19:21:56.830Z,1.00
2023-05-16T19:24:24.635Z,1.00
2023-05-16T19:26:57.327Z,1.00
2023-05-16T19:29:25.339Z,1.00
2023-05-16T19:31:55.510Z,1.00
2023-05-16T19:34:36.876Z,1.00
2023-05-16T19:37:06.416Z,6.70
2023-05-16T19:39:34.265Z,15.20
2023-05-16T19:42:07.544Z,29.90
2023-05-16T19:44:36.124Z,49.10
2023-05-16T19:47:08.668Z,63.50
2023-05-16T19:49:38.249Z,91.30
2023-05-16T19:52:13.717Z,94.70
2023-05-16T19:54:53.058Z,99.90
2023-05-16T19:57:28.918Z,99.90
2023-05-16T21:39:48.372Z,99.90
2023-05-16T21:45:54.503Z,99.90
2023-05-16T21:57:19.685Z,99.90
2023-05-16T22:05:13.314Z,1.00
2023-05-16T22:09:40.761Z,1.00
2023-05-16T22:11:58.567Z,1.00
2023-05-16T22:18:21.962Z,1.00
2023-05-16T22:21:02.050Z,1.00
2023-05-16T22:23:37.490Z,1.00
2023-05-16T22:26:07.688Z,1.00
2023-05-16T22:29:16.543Z,1.00
2023-05-16T23:08:50.307Z,99.90
2023-05-16T23:11:17.563Z,99.90
2023-05-16T23:13:53.770Z,99.90
2023-05-16T23:16:21.119Z,99.90
2023-05-16T23:18:51.014Z,99.90
2023-05-16T23:21:20.261Z,99.90
2023-05-16T23:23:47.540Z,99.90
2023-05-16T23:26:16.023Z,99.90
2023-05-16T23:28:43.345Z,99.90
2023-05-16T23:31:10.761Z,99.90
2023-05-16T23:33:38.543Z,99.90
2023-05-16T23:36:08.774Z,99.90
2023-05-16T23:38:39.005Z,99.90
2023-05-16T23:41:06.153Z,99.90
2023-05-16T23:43:33.301Z,99.90
2023-05-16T23:49:03.480Z,99.90
2023-05-16T23:51:41.370Z,99.90
2023-05-16T23:54:45.734Z,99.90
2023-05-16T23:57:12.856Z,99.90
2023-05-16T23:59:57.975Z,99.90
